Villaquilambre, Spain
Current Conditions -  °F | °C
As of 1:00 PM on Sunday 23 Nov 2014 (Local Time) from LELN Reporting Station
Moderate Rain Moderate Rain  
Wind Chill: 50°   Ceiling: 100
Heat Index: 50°   Visibility: 2.5mi
Dew Point: 48°   Wind: 2mph
Humidity: 94%   Direction: NA
Pressure: 29.91"   Gusts: NA
Location:  42.65°N, 5.56°W
Report Text: LELN 231200Z VRB02KT 4000 RA BKN001 10/09 Q1013
Loading
Personal Weather Stations






























Interactive Weather Map New forecast layout! Learn more

10-Day Weather Forecast

Advertisements
Track Severe Weather on mobile